Time;durP1;ratioP1;P1;durP2;ratioP2;P2;SDS_P1;SDS_P2;PMS_P1;PMS_P2;Temp;Humidity;BMP_temperature;BMP_pressure;BME280_temperature;BME280_humidity;BME280_pressure;Samples;Min_cycle;Max_cycle;Signal;HPM_P1;HPM_P2
2021/06/15 00:00:15;;;;;;;;;;;24.50;35.20;;;;;;1587627;73;800;-66
2021/06/15 00:02:17;;;;;;;;;;;24.50;35.20;;;;;;1594546;73;1131;-64
2021/06/15 00:04:19;;;;;;;;;;;24.50;35.20;;;;;;1590285;74;759;-65
2021/06/15 00:06:21;;;;;;;;;;;24.60;35.10;;;;;;1593341;74;1932;-66
2021/06/15 00:08:23;;;;;;;;;;;24.50;35.30;;;;;;1595350;73;757;-66
2021/06/15 00:10:25;;;;;;;;;;;24.50;35.20;;;;;;1577069;73;717;-66
2021/06/15 00:12:27;;;;;;;;;;;24.60;35.40;;;;;;1587376;73;1124;-66
2021/06/15 00:14:29;;;;;;;;;;;24.60;35.40;;;;;;1584622;73;706;-66
2021/06/15 00:16:31;;;;;;;;;;;24.60;35.40;;;;;;1590558;73;845;-65
2021/06/15 00:18:33;;;;;;;;;;;24.50;35.20;;;;;;1584477;74;815;-66
2021/06/15 00:20:35;;;;;;;;;;;24.50;35.20;;;;;;1590981;73;718;-66
2021/06/15 00:22:37;;;;;;;;;;;24.50;35.40;;;;;;1593492;73;1164;-64
2021/06/15 00:24:39;;;;;;;;;;;24.50;35.20;;;;;;1598091;73;1936;-66
2021/06/15 00:26:40;;;;;;;;;;;24.50;35.20;;;;;;1581807;74;794;-66
2021/06/15 00:28:42;;;;;;;;;;;24.50;35.20;;;;;;1592969;73;804;-67
2021/06/15 00:30:44;;;;;;;;;;;24.50;35.00;;;;;;1577502;74;1283;-67
2021/06/15 00:32:48;;;;;;;;;;;24.40;35.00;;;;;;1575913;73;773;-67
2021/06/15 00:34:50;;;;;;;;;;;24.50;35.00;;;;;;1589473;74;717;-66
2021/06/15 00:36:51;;;;;;;;;;;24.50;35.00;;;;;;1593939;73;747;-66
2021/06/15 00:38:53;;;;;;;;;;;24.50;35.00;;;;;;1595043;74;730;-66
2021/06/15 00:40:55;;;;;;;;;;;24.50;35.30;;;;;;1589421;73;1168;-66
2021/06/15 00:42:57;;;;;;;;;;;24.50;35.10;;;;;;1596822;73;687;-66
2021/06/15 00:44:59;;;;;;;;;;;24.40;34.90;;;;;;1599917;73;1930;-68
2021/06/15 00:47:01;;;;;;;;;;;24.50;35.10;;;;;;1590169;73;880;-66
2021/06/15 00:49:03;;;;;;;;;;;24.50;35.20;;;;;;1590709;73;764;-67
2021/06/15 00:51:05;;;;;;;;;;;24.40;35.00;;;;;;1587653;73;1136;-66
2021/06/15 00:53:07;;;;;;;;;;;24.50;35.10;;;;;;1593893;73;759;-66
2021/06/15 00:55:09;;;;;;;;;;;24.40;34.80;;;;;;1600893;74;759;-67
2021/06/15 00:57:17;;;;;;;;;;;24.50;34.80;;;;;;1584090;73;793;-66
2021/06/15 00:59:19;;;;;;;;;;;24.40;34.80;;;;;;1591434;73;744;-65
2021/06/15 01:01:23;;;;;;;;;;;24.40;34.50;;;;;;1597513;73;1091;-65
2021/06/15 01:03:25;;;;;;;;;;;24.50;34.70;;;;;;1599701;73;706;-63
2021/06/15 01:05:27;;;;;;;;;;;24.50;34.70;;;;;;1595986;74;1911;-65
2021/06/15 01:07:30;;;;;;;;;;;24.50;34.80;;;;;;1592435;73;664;-66
2021/06/15 01:09:34;;;;;;;;;;;24.50;34.70;;;;;;1582481;73;773;-64
2021/06/15 01:11:50;;;;;;;;;;;24.50;34.90;;;;;;1595260;73;1123;-64
2021/06/15 01:14:05;;;;;;;;;;;24.40;34.80;;;;;;1555752;74;1683;-65
2021/06/15 01:16:12;;;;;;;;;;;24.40;34.80;;;;;;1595187;73;833;-65
2021/06/15 01:18:14;;;;;;;;;;;24.40;34.80;;;;;;1603293;73;1685;-65
2021/06/15 01:20:18;;;;;;;;;;;24.40;35.10;;;;;;1593558;74;802;-63
2021/06/15 01:22:24;;;;;;;;;;;24.40;35.00;;;;;;1593386;73;1093;-65
2021/06/15 01:24:27;;;;;;;;;;;24.40;34.90;;;;;;1592110;73;827;-65
2021/06/15 01:26:40;;;;;;;;;;;24.40;34.80;;;;;;1591377;73;1928;-65
2021/06/15 01:28:52;;;;;;;;;;;24.30;34.60;;;;;;1592975;73;677;-65
2021/06/15 01:31:11;;;;;;;;;;;24.40;35.00;;;;;;1595370;73;1216;-64
2021/06/15 01:33:14;;;;;;;;;;;24.40;34.70;;;;;;1604881;73;764;-64
2021/06/15 01:35:16;;;;;;;;;;;24.40;35.20;;;;;;1598186;73;777;-62
2021/06/15 01:37:19;;;;;;;;;;;24.20;34.50;;;;;;1597838;73;924;-64
2021/06/15 01:39:21;;;;;;;;;;;24.30;34.90;;;;;;1598758;73;1818;-62
2021/06/15 01:41:25;;;;;;;;;;;24.40;35.00;;;;;;1598177;73;1139;-64
2021/06/15 01:43:31;;;;;;;;;;;24.40;35.00;;;;;;1584499;73;1955;-64
2021/06/15 01:45:36;;;;;;;;;;;24.40;35.30;;;;;;1595871;73;1902;-65
2021/06/15 01:47:39;;;;;;;;;;;24.30;35.00;;;;;;1584498;73;763;-65
2021/06/15 01:49:45;;;;;;;;;;;24.40;34.90;;;;;;1601339;73;862;-66
2021/06/15 01:51:48;;;;;;;;;;;24.30;35.00;;;;;;1595969;73;1136;-65
2021/06/15 01:53:57;;;;;;;;;;;24.30;36.00;;;;;;1589330;73;829;-68
2021/06/15 01:55:58;;;;;;;;;;;24.40;34.90;;;;;;1599962;74;1734;-66
2021/06/15 01:58:00;;;;;;;;;;;24.40;34.90;;;;;;1594696;73;964;-67
2021/06/15 02:00:03;;;;;;;;;;;24.40;35.00;;;;;;1599962;73;807;-67
2021/06/15 02:02:05;;;;;;;;;;;24.30;34.70;;;;;;1562494;74;1951;-66
2021/06/15 02:04:07;;;;;;;;;;;24.40;34.90;;;;;;1522201;76;831;-66
2021/06/15 02:06:09;;;;;;;;;;;24.40;35.00;;;;;;1577033;75;1920;-66
2021/06/15 02:08:12;;;;;;;;;;;24.40;35.10;;;;;;1574747;75;869;-67
2021/06/15 02:10:14;;;;;;;;;;;24.40;34.90;;;;;;1582453;74;719;-66
2021/06/15 02:12:16;;;;;;;;;;;24.40;34.70;;;;;;1531336;76;1112;-67
2021/06/15 02:14:22;;;;;;;;;;;24.40;34.70;;;;;;1511817;77;813;-66
2021/06/15 02:16:22;;;;;;;;;;;24.30;34.60;;;;;;1564743;75;1637;-67
2021/06/15 02:18:24;;;;;;;;;;;24.40;35.00;;;;;;1554248;75;695;-66
2021/06/15 02:20:28;;;;;;;;;;;24.30;34.70;;;;;;1567297;75;865;-67
2021/06/15 02:22:30;;;;;;;;;;;24.40;34.80;;;;;;1564423;75;1356;-67
2021/06/15 02:24:32;;;;;;;;;;;24.30;34.70;;;;;;1567271;75;774;-67
2021/06/15 02:26:34;;;;;;;;;;;24.40;34.70;;;;;;1564684;75;1936;-67
2021/06/15 02:28:36;;;;;;;;;;;24.40;35.10;;;;;;1546487;75;720;-63
2021/06/15 02:30:38;;;;;;;;;;;24.40;35.00;;;;;;1533012;75;785;-65
2021/06/15 02:32:40;;;;;;;;;;;24.40;34.90;;;;;;1573499;74;788;-66
2021/06/15 02:34:48;;;;;;;;;;;24.40;34.70;;;;;;1569754;75;734;-66
2021/06/15 02:36:50;;;;;;;;;;;24.40;34.90;;;;;;1584773;75;734;-65
2021/06/15 02:38:56;;;;;;;;;;;24.40;34.90;;;;;;1565328;74;731;-66
2021/06/15 02:41:00;;;;;;;;;;;24.40;34.80;;;;;;1573339;74;1157;-65
2021/06/15 02:43:02;;;;;;;;;;;24.40;34.70;;;;;;1580740;74;769;-66
2021/06/15 02:45:04;;;;;;;;;;;24.30;34.80;;;;;;1568175;74;778;-61
2021/06/15 02:47:06;;;;;;;;;;;24.30;34.70;;;;;;1579182;74;1932;-65
2021/06/15 02:49:12;;;;;;;;;;;24.30;34.70;;;;;;1572271;74;915;-63
2021/06/15 02:51:14;;;;;;;;;;;24.30;35.10;;;;;;1575723;74;1110;-64
2021/06/15 02:53:17;;;;;;;;;;;24.30;35.40;;;;;;1571659;75;792;-64
2021/06/15 02:55:23;;;;;;;;;;;24.30;35.30;;;;;;1561476;74;772;-68
2021/06/15 02:57:28;;;;;;;;;;;24.30;35.20;;;;;;1574943;74;1853;-68
2021/06/15 02:59:30;;;;;;;;;;;24.30;34.60;;;;;;1584867;74;808;-67
2021/06/15 03:01:32;;;;;;;;;;;24.30;34.70;;;;;;1586810;74;1205;-64
2021/06/15 03:03:37;;;;;;;;;;;24.30;34.90;;;;;;1566161;74;770;-64
2021/06/15 03:05:39;;;;;;;;;;;24.30;34.80;;;;;;1581895;73;1923;-65
2021/06/15 03:07:41;;;;;;;;;;;24.30;34.70;;;;;;1576839;74;726;-67
2021/06/15 03:09:44;;;;;;;;;;;24.30;34.60;;;;;;1573789;74;732;-67
2021/06/15 03:11:47;;;;;;;;;;;24.30;34.90;;;;;;1582185;73;1110;-70
2021/06/15 03:13:57;;;;;;;;;;;24.30;34.70;;;;;;1571925;74;1707;-66
2021/06/15 03:15:59;;;;;;;;;;;24.40;35.10;;;;;;1582452;74;1910;-67
2021/06/15 03:18:08;;;;;;;;;;;24.40;35.00;;;;;;1583482;74;729;-66
2021/06/15 03:20:10;;;;;;;;;;;24.20;35.60;;;;;;1577551;74;707;-65
2021/06/15 03:22:16;;;;;;;;;;;24.30;36.00;;;;;;1580201;74;1084;-64
2021/06/15 03:24:22;;;;;;;;;;;24.30;36.00;;;;;;1578543;74;739;-65
2021/06/15 03:26:28;;;;;;;;;;;24.30;35.90;;;;;;1569014;74;1911;-61
2021/06/15 03:28:30;;;;;;;;;;;24.30;35.80;;;;;;1574072;74;787;-65
2021/06/15 03:30:32;;;;;;;;;;;24.30;35.80;;;;;;1587331;74;805;-65
2021/06/15 03:32:34;;;;;;;;;;;24.30;35.80;;;;;;1588741;73;1073;-62
2021/06/15 03:34:36;;;;;;;;;;;24.30;35.80;;;;;;1594029;73;794;-67
2021/06/15 03:36:38;;;;;;;;;;;24.30;35.70;;;;;;1599867;73;672;-65
2021/06/15 03:38:40;;;;;;;;;;;24.30;35.80;;;;;;1590629;73;751;-65
2021/06/15 03:40:44;;;;;;;;;;;24.40;35.90;;;;;;1594674;73;1175;-65
2021/06/15 03:42:45;;;;;;;;;;;24.30;36.00;;;;;;1602421;73;1952;-64
2021/06/15 03:45:01;;;;;;;;;;;24.40;36.00;;;;;;1594211;73;761;-65
2021/06/15 03:47:03;;;;;;;;;;;24.30;36.10;;;;;;1595917;74;1948;-65
2021/06/15 03:49:06;;;;;;;;;;;24.30;36.10;;;;;;1597974;74;779;-65
2021/06/15 03:51:12;;;;;;;;;;;24.30;36.10;;;;;;1596142;73;1134;-66
2021/06/15 03:53:14;;;;;;;;;;;24.20;36.00;;;;;;1596202;73;801;-65
2021/06/15 03:55:16;;;;;;;;;;;24.30;36.20;;;;;;1596043;73;784;-63
2021/06/15 03:57:18;;;;;;;;;;;24.30;36.30;;;;;;1558857;75;1219;-64
2021/06/15 03:59:22;;;;;;;;;;;24.30;36.30;;;;;;1600396;73;779;-68
2021/06/15 04:01:24;;;;;;;;;;;24.30;36.30;;;;;;1594314;73;1159;-62
2021/06/15 04:03:26;;;;;;;;;;;24.20;36.30;;;;;;1598419;73;771;-64
2021/06/15 04:05:28;;;;;;;;;;;24.30;36.40;;;;;;1565900;74;723;-65
2021/06/15 04:07:31;;;;;;;;;;;24.30;36.60;;;;;;1538402;76;1930;-65
2021/06/15 04:09:34;;;;;;;;;;;24.30;36.50;;;;;;1534530;76;695;-65
2021/06/15 04:11:36;;;;;;;;;;;24.30;36.20;;;;;;1534187;75;1160;-66
2021/06/15 04:13:40;;;;;;;;;;;24.30;36.20;;;;;;1538798;77;762;-66
2021/06/15 04:15:42;;;;;;;;;;;24.30;36.60;;;;;;1557361;74;683;-68
2021/06/15 04:17:45;;;;;;;;;;;24.30;37.00;;;;;;1590512;74;786;-68
2021/06/15 04:19:49;;;;;;;;;;;24.30;36.80;;;;;;1589787;74;792;-65
2021/06/15 04:21:52;;;;;;;;;;;24.30;36.90;;;;;;1589114;73;1152;-66
2021/06/15 04:23:55;;;;;;;;;;;24.30;37.00;;;;;;1595737;73;754;-63
2021/06/15 04:25:57;;;;;;;;;;;24.30;37.00;;;;;;1579434;74;784;-68
2021/06/15 04:28:00;;;;;;;;;;;24.40;37.00;;;;;;1599379;73;1857;-68
2021/06/15 04:30:03;;;;;;;;;;;24.40;37.10;;;;;;1599939;73;780;-66
2021/06/15 04:32:09;;;;;;;;;;;24.40;37.00;;;;;;1597751;73;1112;-65
2021/06/15 04:34:12;;;;;;;;;;;24.30;37.20;;;;;;1600151;73;809;-66
2021/06/15 04:36:13;;;;;;;;;;;24.40;37.40;;;;;;1598142;73;723;-66
2021/06/15 04:38:16;;;;;;;;;;;24.30;37.50;;;;;;1590256;73;722;-66
2021/06/15 04:40:19;;;;;;;;;;;24.40;37.50;;;;;;1600990;73;743;-65
2021/06/15 04:42:39;;;;;;;;;;;24.30;37.40;;;;;;1577837;73;1794;-64
2021/06/15 04:44:42;;;;;;;;;;;24.30;37.50;;;;;;1577422;73;759;-67
2021/06/15 04:46:44;;;;;;;;;;;24.30;37.90;;;;;;1585364;73;1933;-66
2021/06/15 04:48:48;;;;;;;;;;;24.30;37.70;;;;;;1588495;73;741;-67
2021/06/15 04:53:17;;;;;;;;;;;24.40;38.10;;;;;;1594634;73;702;-58
2021/06/15 04:55:23;;;;;;;;;;;24.40;37.80;;;;;;1594918;73;729;-59
2021/06/15 04:57:27;;;;;;;;;;;24.40;38.00;;;;;;1642093;72;714;-57
2021/06/15 04:59:29;;;;;;;;;;;24.40;37.90;;;;;;1622829;72;1826;-54
2021/06/15 05:01:31;;;;;;;;;;;24.40;38.00;;;;;;1618298;72;1201;-57
2021/06/15 05:03:33;;;;;;;;;;;24.40;38.20;;;;;;1613382;72;809;-56
2021/06/15 05:05:35;;;;;;;;;;;24.40;38.30;;;;;;1609519;72;720;-55
2021/06/15 05:07:36;;;;;;;;;;;24.40;38.30;;;;;;1622139;72;1941;-57
2021/06/15 05:09:38;;;;;;;;;;;24.40;38.20;;;;;;1596601;72;787;-57
2021/06/15 05:11:40;;;;;;;;;;;24.40;38.30;;;;;;1594635;73;1130;-57
2021/06/15 05:13:42;;;;;;;;;;;24.40;38.30;;;;;;1617597;72;741;-57
2021/06/15 05:15:44;;;;;;;;;;;24.40;38.30;;;;;;1601407;72;708;-56
2021/06/15 05:17:47;;;;;;;;;;;24.50;38.40;;;;;;1588102;73;777;-55
2021/06/15 05:19:49;;;;;;;;;;;24.40;38.20;;;;;;1593734;73;625;-55
2021/06/15 05:21:52;;;;;;;;;;;24.50;38.30;;;;;;1596757;73;1159;-57
2021/06/15 05:23:58;;;;;;;;;;;24.40;38.30;;;;;;1577026;73;797;-58
2021/06/15 05:26:00;;;;;;;;;;;24.50;38.40;;;;;;1592016;73;1821;-55
2021/06/15 05:28:02;;;;;;;;;;;24.40;38.40;;;;;;1595032;73;1939;-57
2021/06/15 05:30:05;;;;;;;;;;;24.40;38.50;;;;;;1594983;73;712;-58
2021/06/15 05:32:08;;;;;;;;;;;24.50;38.60;;;;;;1584381;73;1159;-58
2021/06/15 05:34:10;;;;;;;;;;;24.40;38.60;;;;;;1607272;73;756;-57
2021/06/15 05:36:11;;;;;;;;;;;24.50;38.60;;;;;;1613703;72;783;-58
2021/06/15 05:38:13;;;;;;;;;;;24.50;38.60;;;;;;1610908;73;649;-54
2021/06/15 05:40:15;;;;;;;;;;;24.40;38.40;;;;;;1609859;73;759;-55
2021/06/15 05:42:17;;;;;;;;;;;24.40;38.10;;;;;;1601507;72;1158;-55
2021/06/15 05:44:19;;;;;;;;;;;24.40;38.60;;;;;;1608824;72;790;-58
2021/06/15 05:46:21;;;;;;;;;;;24.40;38.80;;;;;;1603273;72;774;-58
2021/06/15 05:48:23;;;;;;;;;;;24.40;38.70;;;;;;1606220;73;1948;-58
2021/06/15 05:50:25;;;;;;;;;;;24.40;38.60;;;;;;1606416;72;799;-58
2021/06/15 05:52:27;;;;;;;;;;;24.40;39.00;;;;;;1611243;72;1118;-58
2021/06/15 05:54:29;;;;;;;;;;;24.30;38.60;;;;;;1619791;72;802;-57
2021/06/15 05:56:31;;;;;;;;;;;24.30;38.90;;;;;;1612848;73;762;-58
2021/06/15 05:58:33;;;;;;;;;;;24.40;38.80;;;;;;1610316;72;940;-57
2021/06/15 06:00:35;;;;;;;;;;;24.40;38.60;;;;;;1558661;74;1191;-56
2021/06/15 06:02:36;;;;;;;;;;;24.40;38.40;;;;;;1590332;73;720;-56
2021/06/15 06:09:20;;;;;;;;;;;24.30;38.40;;;;;;1587663;74;1627;-58
2021/06/15 06:11:22;;;;;;;;;;;24.30;38.90;;;;;;1557976;74;1204;-56
2021/06/15 06:13:24;;;;;;;;;;;24.30;38.60;;;;;;1578850;74;647;-57
2021/06/15 06:15:26;;;;;;;;;;;24.30;38.40;;;;;;1591948;74;800;-57
2021/06/15 06:17:28;;;;;;;;;;;24.40;38.20;;;;;;1569073;74;755;-56
2021/06/15 06:19:30;;;;;;;;;;;24.40;38.40;;;;;;1562557;74;815;-54
2021/06/15 06:21:32;;;;;;;;;;;24.50;38.60;;;;;;1575701;74;1160;-56
2021/06/15 06:23:36;;;;;;;;;;;24.40;38.40;;;;;;1543491;75;770;-55
2021/06/15 06:25:38;;;;;;;;;;;24.40;38.60;;;;;;1565438;75;1454;-57
2021/06/15 06:27:40;;;;;;;;;;;24.50;38.70;;;;;;1589029;73;1921;-57
2021/06/15 06:29:42;;;;;;;;;;;24.40;38.80;;;;;;1562052;74;714;-57
2021/06/15 06:31:44;;;;;;;;;;;24.40;39.70;;;;;;1562549;74;1152;-57
2021/06/15 06:33:45;;;;;;;;;;;24.50;39.20;;;;;;1566528;74;709;-57
2021/06/15 06:35:47;;;;;;;;;;;24.50;39.00;;;;;;1567232;74;768;-56
2021/06/15 06:37:49;;;;;;;;;;;24.70;40.40;;;;;;1596789;73;752;-57
2021/06/15 06:39:51;;;;;;;;;;;24.70;39.90;;;;;;1600011;73;782;-57
2021/06/15 06:41:53;;;;;;;;;;;24.70;40.00;;;;;;1591847;73;1207;-54
2021/06/15 06:43:55;;;;;;;;;;;24.80;39.40;;;;;;1587737;73;722;-57
2021/06/15 06:45:57;;;;;;;;;;;24.90;39.60;;;;;;1565661;74;835;-57
2021/06/15 06:47:59;;;;;;;;;;;25.00;40.00;;;;;;1600562;73;1943;-57
2021/06/15 06:50:01;;;;;;;;;;;25.00;39.60;;;;;;1584353;73;735;-54
2021/06/15 06:52:03;;;;;;;;;;;25.00;39.60;;;;;;1576241;74;1131;-57
2021/06/15 06:54:05;;;;;;;;;;;25.10;39.50;;;;;;1621947;72;897;-57
2021/06/15 06:56:07;;;;;;;;;;;25.10;39.50;;;;;;1616429;73;731;-54
2021/06/15 06:58:10;;;;;;;;;;;25.20;39.20;;;;;;1614238;72;679;-56
2021/06/15 07:00:12;;;;;;;;;;;25.20;39.50;;;;;;1620874;72;666;-57
2021/06/15 07:02:14;;;;;;;;;;;25.20;39.20;;;;;;1620594;72;1158;-53
2021/06/15 07:04:16;;;;;;;;;;;25.20;39.20;;;;;;1613889;72;774;-56
2021/06/15 07:06:18;;;;;;;;;;;25.30;39.50;;;;;;1620928;72;835;-57
2021/06/15 07:08:20;;;;;;;;;;;25.20;39.70;;;;;;1616817;72;1936;-56
2021/06/15 07:10:22;;;;;;;;;;;25.00;40.10;;;;;;1621192;72;777;-56
2021/06/15 07:12:24;;;;;;;;;;;25.10;40.10;;;;;;1622055;72;1031;-57
2021/06/15 07:14:26;;;;;;;;;;;25.20;40.00;;;;;;1622547;72;736;-56
2021/06/15 07:16:28;;;;;;;;;;;25.30;39.60;;;;;;1621414;72;765;-56
2021/06/15 07:18:30;;;;;;;;;;;25.20;39.70;;;;;;1621796;72;801;-53
2021/06/15 07:20:32;;;;;;;;;;;25.20;39.70;;;;;;1620411;72;1137;-57
2021/06/15 07:22:34;;;;;;;;;;;25.30;39.50;;;;;;1620906;72;828;-56
2021/06/15 07:24:37;;;;;;;;;;;25.30;39.40;;;;;;1618580;72;788;-57
2021/06/15 07:26:39;;;;;;;;;;;25.30;39.00;;;;;;1620590;72;642;-57
2021/06/15 07:28:41;;;;;;;;;;;25.30;39.40;;;;;;1623597;72;1924;-53
2021/06/15 07:30:43;;;;;;;;;;;25.30;39.10;;;;;;1615904;72;1242;-56
2021/06/15 07:32:45;;;;;;;;;;;25.40;38.40;;;;;;1622352;72;944;-57
2021/06/15 07:34:46;;;;;;;;;;;25.40;38.60;;;;;;1620199;72;643;-56
2021/06/15 07:36:48;;;;;;;;;;;25.30;38.60;;;;;;1623459;72;705;-54
2021/06/15 07:38:51;;;;;;;;;;;25.30;38.50;;;;;;1627770;72;761;-54
2021/06/15 07:40:54;;;;;;;;;;;25.30;38.30;;;;;;1621163;72;1132;-56
2021/06/15 07:42:57;;;;;;;;;;;25.20;38.10;;;;;;1622880;72;691;-57
2021/06/15 07:44:59;;;;;;;;;;;25.30;38.00;;;;;;1617966;73;737;-54
2021/06/15 07:47:01;;;;;;;;;;;25.20;37.80;;;;;;1619406;72;793;-57
2021/06/15 07:49:03;;;;;;;;;;;25.30;38.00;;;;;;1622979;72;1939;-57
2021/06/15 07:51:05;;;;;;;;;;;25.30;37.90;;;;;;1617786;72;1166;-54
2021/06/15 07:53:07;;;;;;;;;;;25.30;37.90;;;;;;1619886;72;883;-54
2021/06/15 07:55:10;;;;;;;;;;;25.40;37.90;;;;;;1614387;72;709;-57
2021/06/15 07:57:12;;;;;;;;;;;25.40;37.70;;;;;;1614082;72;706;-54
2021/06/15 07:59:14;;;;;;;;;;;25.40;37.60;;;;;;1616487;72;686;-56
2021/06/15 08:01:16;;;;;;;;;;;25.50;37.60;;;;;;1621887;72;1158;-55
2021/06/15 08:03:18;;;;;;;;;;;25.40;37.60;;;;;;1622111;72;766;-58
2021/06/15 08:05:20;;;;;;;;;;;25.50;37.40;;;;;;1615746;72;773;-57
2021/06/15 08:07:22;;;;;;;;;;;25.50;37.30;;;;;;1616188;72;1920;-57
2021/06/15 08:09:24;;;;;;;;;;;25.50;37.20;;;;;;1619686;72;703;-57
2021/06/15 08:11:25;;;;;;;;;;;25.70;37.10;;;;;;1623877;72;1123;-57
2021/06/15 08:13:27;;;;;;;;;;;25.50;37.00;;;;;;1619333;72;759;-57
2021/06/15 08:15:29;;;;;;;;;;;25.50;37.20;;;;;;1613563;72;809;-56
2021/06/15 08:17:31;;;;;;;;;;;25.50;36.80;;;;;;1629684;72;879;-55
2021/06/15 08:19:33;;;;;;;;;;;25.60;36.90;;;;;;1619029;72;733;-57
2021/06/15 08:21:35;;;;;;;;;;;25.60;37.00;;;;;;1622591;72;1213;-57
2021/06/15 08:23:37;;;;;;;;;;;25.50;36.90;;;;;;1621482;72;787;-57
2021/06/15 08:25:38;;;;;;;;;;;25.50;37.10;;;;;;1618943;72;756;-56
2021/06/15 08:27:40;;;;;;;;;;;25.50;36.10;;;;;;1622484;72;1939;-56
2021/06/15 08:29:42;;;;;;;;;;;25.40;36.20;;;;;;1622530;72;612;-56
2021/06/15 08:31:44;;;;;;;;;;;25.40;36.70;;;;;;1619478;72;1084;-54
2021/06/15 08:33:46;;;;;;;;;;;25.50;36.80;;;;;;1621636;72;769;-57
2021/06/15 08:35:48;;;;;;;;;;;25.40;36.30;;;;;;1619849;72;763;-53
2021/06/15 08:37:50;;;;;;;;;;;25.50;36.10;;;;;;1617675;72;734;-53
2021/06/15 08:39:52;;;;;;;;;;;25.50;33.70;;;;;;1618226;73;795;-57
2021/06/15 08:41:54;;;;;;;;;;;25.40;33.40;;;;;;1620160;72;1144;-58
2021/06/15 08:43:56;;;;;;;;;;;25.40;33.00;;;;;;1622471;72;729;-57
2021/06/15 08:45:58;;;;;;;;;;;25.40;33.80;;;;;;1610221;72;820;-57
2021/06/15 08:48:00;;;;;;;;;;;25.40;33.80;;;;;;1606688;72;1929;-57
2021/06/15 08:50:02;;;;;;;;;;;25.40;34.90;;;;;;1612310;73;793;-57
2021/06/15 08:52:04;;;;;;;;;;;25.50;35.00;;;;;;1615553;72;1134;-56
2021/06/15 08:54:07;;;;;;;;;;;25.60;34.30;;;;;;1618041;72;779;-57
2021/06/15 08:56:10;;;;;;;;;;;25.50;34.10;;;;;;1612404;73;694;-57
2021/06/15 08:58:17;;;;;;;;;;;25.50;33.10;;;;;;1618537;73;798;-57
2021/06/15 09:00:19;;;;;;;;;;;25.40;33.90;;;;;;1617749;72;753;-57
2021/06/15 09:02:20;;;;;;;;;;;25.40;34.60;;;;;;1611619;72;1131;-57
2021/06/15 09:04:22;;;;;;;;;;;25.40;33.90;;;;;;1613380;73;774;-56
2021/06/15 09:06:24;;;;;;;;;;;25.40;34.40;;;;;;1620474;72;782;-56
2021/06/15 09:08:26;;;;;;;;;;;25.50;34.40;;;;;;1616560;72;1950;-55
2021/06/15 09:10:28;;;;;;;;;;;25.40;33.90;;;;;;1621641;72;799;-57
2021/06/15 09:12:30;;;;;;;;;;;25.50;34.50;;;;;;1618629;72;798;-57
2021/06/15 09:14:39;;;;;;;;;;;25.50;34.70;;;;;;1599055;74;1228;-57
2021/06/15 09:16:43;;;;;;;;;;;25.50;34.70;;;;;;1610791;72;729;-57
2021/06/15 09:18:44;;;;;;;;;;;25.50;34.70;;;;;;1617378;72;1829;-57
2021/06/15 09:20:46;;;;;;;;;;;25.40;34.90;;;;;;1618637;72;1119;-57
2021/06/15 09:22:50;;;;;;;;;;;25.40;35.10;;;;;;1615892;72;754;-58
2021/06/15 09:24:52;;;;;;;;;;;25.40;35.70;;;;;;1610100;73;1465;-57
2021/06/15 09:26:55;;;;;;;;;;;25.30;36.00;;;;;;1613470;72;693;-57
2021/06/15 09:28:59;;;;;;;;;;;25.30;36.00;;;;;;1617344;72;1935;-58
2021/06/15 09:31:07;;;;;;;;;;;25.30;36.40;;;;;;1609507;72;1843;-58
2021/06/15 09:33:10;;;;;;;;;;;25.30;36.70;;;;;;1612897;72;721;-57
2021/06/15 09:35:12;;;;;;;;;;;25.30;36.70;;;;;;1620688;72;753;-57
2021/06/15 09:37:14;;;;;;;;;;;25.30;36.40;;;;;;1619046;72;744;-56
2021/06/15 09:39:16;;;;;;;;;;;25.40;36.20;;;;;;1619531;72;793;-57
2021/06/15 09:41:37;;;;;;;;;;;25.50;36.00;;;;;;1619434;71;1145;-57
2021/06/15 09:43:39;;;;;;;;;;;25.50;36.00;;;;;;1618586;73;771;-56
2021/06/15 09:45:41;;;;;;;;;;;25.50;36.00;;;;;;1622467;72;749;-57
2021/06/15 09:47:43;;;;;;;;;;;25.50;36.00;;;;;;1612786;72;791;-57
2021/06/15 09:49:45;;;;;;;;;;;25.50;36.20;;;;;;1622129;72;1926;-57
2021/06/15 09:51:48;;;;;;;;;;;25.50;36.20;;;;;;1616841;72;1167;-56
2021/06/15 09:53:51;;;;;;;;;;;25.40;35.90;;;;;;1618986;72;718;-57
2021/06/15 09:55:53;;;;;;;;;;;25.40;36.30;;;;;;1619553;72;792;-56
2021/06/15 09:57:56;;;;;;;;;;;25.40;36.10;;;;;;1629189;72;725;-58
2021/06/15 09:59:59;;;;;;;;;;;25.20;36.50;;;;;;1624366;71;1264;-58
2021/06/15 10:02:01;;;;;;;;;;;25.40;36.50;;;;;;1617213;72;1157;-57
2021/06/15 10:04:11;;;;;;;;;;;25.40;36.40;;;;;;1618733;72;734;-57
2021/06/15 10:06:15;;;;;;;;;;;25.40;36.20;;;;;;1610721;73;1052;-56
2021/06/15 10:08:16;;;;;;;;;;;25.40;36.30;;;;;;1589728;73;1921;-57
2021/06/15 10:10:20;;;;;;;;;;;25.40;36.30;;;;;;1617803;72;715;-56
2021/06/15 10:12:22;;;;;;;;;;;25.30;35.90;;;;;;1621956;72;1767;-58
2021/06/15 10:14:24;;;;;;;;;;;25.30;36.50;;;;;;1617109;73;837;-57
2021/06/15 10:16:26;;;;;;;;;;;25.30;36.40;;;;;;1619990;72;737;-56
2021/06/15 10:18:28;;;;;;;;;;;25.30;35.90;;;;;;1612506;72;745;-57
2021/06/15 10:20:31;;;;;;;;;;;25.30;36.30;;;;;;1617845;72;1146;-59
2021/06/15 10:22:33;;;;;;;;;;;25.30;36.30;;;;;;1619529;72;845;-61
2021/06/15 10:24:36;;;;;;;;;;;25.20;35.80;;;;;;1622552;72;750;-57
2021/06/15 10:26:38;;;;;;;;;;;25.10;35.60;;;;;;1619516;72;1467;-57
2021/06/15 10:28:40;;;;;;;;;;;25.10;35.70;;;;;;1615473;73;1943;-56
2021/06/15 10:30:42;;;;;;;;;;;25.10;36.40;;;;;;1620132;73;1170;-56
2021/06/15 10:32:51;;;;;;;;;;;25.10;36.40;;;;;;1620105;72;792;-57
2021/06/15 10:34:55;;;;;;;;;;;25.10;36.10;;;;;;1633632;72;867;-57
2021/06/15 10:36:56;;;;;;;;;;;25.10;35.70;;;;;;1624232;72;706;-57
2021/06/15 10:38:58;;;;;;;;;;;25.10;35.50;;;;;;1618733;72;799;-56
2021/06/15 10:41:02;;;;;;;;;;;25.30;35.70;;;;;;1620812;72;1108;-56
2021/06/15 10:43:20;;;;;;;;;;;25.00;35.70;;;;;;1616226;72;910;-58
2021/06/15 10:45:28;;;;;;;;;;;25.00;35.80;;;;;;1616015;72;907;-56
2021/06/15 10:47:30;;;;;;;;;;;25.10;36.00;;;;;;1612150;72;788;-57
2021/06/15 10:49:32;;;;;;;;;;;25.10;36.10;;;;;;1621440;73;1923;-57
2021/06/15 10:51:53;;;;;;;;;;;25.00;35.80;;;;;;1622506;71;219149;-66
2021/06/15 10:54:04;;;;;;;;;;;25.10;36.00;;;;;;1591560;73;798;-66
2021/06/15 10:56:04;;;;;;;;;;;25.00;34.90;;;;;;1581219;73;1131;-66
2021/06/15 10:58:05;;;;;;;;;;;25.00;35.20;;;;;;1580158;73;1798;-66
2021/06/15 11:00:12;;;;;;;;;;;25.00;35.50;;;;;;1579387;73;776;-65
2021/06/15 11:02:14;;;;;;;;;;;25.00;35.60;;;;;;1580631;72;1329;-65
2021/06/15 11:04:16;;;;;;;;;;;25.10;35.60;;;;;;1606602;72;791;-65
2021/06/15 11:06:18;;;;;;;;;;;25.00;35.30;;;;;;1600846;72;761;-66
2021/06/15 11:08:25;;;;;;;;;;;25.10;35.50;;;;;;1607474;72;681;-66
2021/06/15 11:10:46;;;;;;;;;;;25.10;35.30;;;;;;1619236;72;873;-66
2021/06/15 11:12:48;;;;;;;;;;;25.10;35.00;;;;;;1611021;72;1123;-69
2021/06/15 11:14:51;;;;;;;;;;;25.10;34.90;;;;;;1613155;72;726;-68
2021/06/15 11:16:56;;;;;;;;;;;25.00;34.30;;;;;;1607984;72;1809;-66
2021/06/15 11:19:11;;;;;;;;;;;25.00;34.40;;;;;;1614647;72;1262;-66
2021/06/15 11:21:16;;;;;;;;;;;25.10;34.30;;;;;;1594193;72;761;-66
2021/06/15 11:23:23;;;;;;;;;;;25.00;34.10;;;;;;1610194;72;1153;-67
2021/06/15 11:25:45;;;;;;;;;;;25.00;34.10;;;;;;1614560;72;832;-63
2021/06/15 11:27:46;;;;;;;;;;;24.90;34.40;;;;;;1604574;72;729;-69
2021/06/15 11:29:49;;;;;;;;;;;24.90;34.80;;;;;;1603552;72;1927;-66
2021/06/15 11:31:50;;;;;;;;;;;24.90;34.70;;;;;;1604372;72;1162;-66
2021/06/15 11:34:03;;;;;;;;;;;24.90;34.50;;;;;;1602037;72;789;-66
2021/06/15 11:36:05;;;;;;;;;;;24.90;34.40;;;;;;1605564;72;800;-66
2021/06/15 11:38:08;;;;;;;;;;;24.90;33.80;;;;;;1628862;72;774;-66
2021/06/15 11:40:28;;;;;;;;;;;24.80;34.40;;;;;;1615856;72;1654;-66
2021/06/15 11:42:30;;;;;;;;;;;24.90;34.20;;;;;;1616588;72;1138;-67
2021/06/15 11:44:55;;;;;;;;;;;24.90;33.90;;;;;;1603440;72;738;-68
2021/06/15 11:47:12;;;;;;;;;;;24.80;33.40;;;;;;1608823;72;1595;-70
2021/06/15 11:49:14;;;;;;;;;;;24.80;34.20;;;;;;1621640;72;1939;-69
2021/06/15 11:51:15;;;;;;;;;;;24.80;34.50;;;;;;1613968;72;778;-66
2021/06/15 11:53:19;;;;;;;;;;;24.70;34.80;;;;;;1623959;72;1275;-74
2021/06/15 11:55:26;;;;;;;;;;;24.80;34.60;;;;;;1618878;72;877;-66
2021/06/15 11:57:28;;;;;;;;;;;24.80;33.70;;;;;;1614735;72;1752;-66
2021/06/15 11:59:29;;;;;;;;;;;24.80;34.20;;;;;;1615522;72;765;-70
2021/06/15 12:01:33;;;;;;;;;;;24.80;34.40;;;;;;1594433;72;1093;-67
2021/06/15 12:03:35;;;;;;;;;;;24.80;34.30;;;;;;1625539;72;1138;-69
2021/06/15 12:05:38;;;;;;;;;;;24.80;34.50;;;;;;1612016;72;777;-68
2021/06/15 12:07:40;;;;;;;;;;;24.80;34.40;;;;;;1593322;72;690;-68
2021/06/15 12:10:01;;;;;;;;;;;24.80;34.10;;;;;;1623456;72;1923;-66
2021/06/15 12:12:02;;;;;;;;;;;24.70;33.90;;;;;;1604920;72;1146;-67
2021/06/15 12:14:04;;;;;;;;;;;24.70;33.50;;;;;;1614790;72;712;-67
2021/06/15 12:16:10;;;;;;;;;;;24.70;34.20;;;;;;1618302;72;757;-67
2021/06/15 12:18:14;;;;;;;;;;;24.70;34.20;;;;;;1593721;72;1719;-67
2021/06/15 12:20:25;;;;;;;;;;;24.70;34.20;;;;;;1603641;72;1931;-66
2021/06/15 12:22:27;;;;;;;;;;;24.70;33.90;;;;;;1605680;72;1141;-66